sensor_id;sensor_type;location;lat;lon;timestamp;temperature;humidity
37310;DHT22;23195;47.744;7.358;2023-08-07T00:02:42;14.30;99.90
37310;DHT22;23195;47.744;7.358;2023-08-07T00:05:21;14.40;99.90
37310;DHT22;23195;47.744;7.358;2023-08-07T00:11:08;14.30;99.90
37310;DHT22;23195;47.744;7.358;2023-08-07T00:14:02;14.80;99.90
37310;DHT22;23195;47.744;7.358;2023-08-07T00:16:49;14.20;99.90
37310;DHT22;23195;47.744;7.358;2023-08-07T00:19:54;14.30;99.90
37310;DHT22;23195;47.744;7.358;2023-08-07T00:23:02;14.20;99.90
37310;DHT22;23195;47.744;7.358;2023-08-07T00:28:23;14.20;99.90
37310;DHT22;23195;47.744;7.358;2023-08-07T00:31:24;14.20;99.90
37310;DHT22;23195;47.744;7.358;2023-08-07T00:37:28;14.20;99.90
37310;DHT22;23195;47.744;7.358;2023-08-07T00:43:05;14.10;99.90
37310;DHT22;23195;47.744;7.358;2023-08-07T00:49:02;14.10;99.90
37310;DHT22;23195;47.744;7.358;2023-08-07T00:51:39;14.10;99.90
37310;DHT22;23195;47.744;7.358;2023-08-07T00:54:26;14.10;99.90
37310;DHT22;23195;47.744;7.358;2023-08-07T00:57:12;14.10;99.90
37310;DHT22;23195;47.744;7.358;2023-08-07T00:59:56;14.00;99.90
37310;DHT22;23195;47.744;7.358;2023-08-07T01:02:33;14.00;99.90
37310;DHT22;23195;47.744;7.358;2023-08-07T01:05:22;13.90;99.90
37310;DHT22;23195;47.744;7.358;2023-08-07T01:08:16;13.90;99.90
37310;DHT22;23195;47.744;7.358;2023-08-07T01:11:18;13.90;99.90
37310;DHT22;23195;47.744;7.358;2023-08-07T01:14:24;13.90;99.90
37310;DHT22;23195;47.744;7.358;2023-08-07T01:17:15;13.90;99.90
37310;DHT22;23195;47.744;7.358;2023-08-07T01:19:58;13.90;99.90
37310;DHT22;23195;47.744;7.358;2023-08-07T01:22:41;13.80;99.90
37310;DHT22;23195;47.744;7.358;2023-08-07T01:25:26;13.70;99.90
37310;DHT22;23195;47.744;7.358;2023-08-07T01:31:04;13.80;99.90
37310;DHT22;23195;47.744;7.358;2023-08-07T01:33:57;13.70;99.90
37310;DHT22;23195;47.744;7.358;2023-08-07T01:36:35;13.60;99.90
37310;DHT22;23195;47.744;7.358;2023-08-07T01:42:48;13.70;99.90
37310;DHT22;23195;47.744;7.358;2023-08-07T01:48:50;13.70;99.90
37310;DHT22;23195;47.744;7.358;2023-08-07T01:51:54;13.50;99.90
37310;DHT22;23195;47.744;7.358;2023-08-07T01:54:24;13.60;99.90
37310;DHT22;23195;47.744;7.358;2023-08-07T01:57:23;13.60;99.90
37310;DHT22;23195;47.744;7.358;2023-08-07T02:00:10;13.20;99.90
37310;DHT22;23195;47.744;7.358;2023-08-07T02:03:10;13.60;99.90
37310;DHT22;23195;47.744;7.358;2023-08-07T02:05:44;13.60;99.90
37310;DHT22;23195;47.744;7.358;2023-08-07T02:08:51;13.60;99.90
37310;DHT22;23195;47.744;7.358;2023-08-07T02:11:52;13.50;99.90
37310;DHT22;23195;47.744;7.358;2023-08-07T02:14:48;13.40;99.90
37310;DHT22;23195;47.744;7.358;2023-08-07T02:17:30;13.40;99.90
37310;DHT22;23195;47.744;7.358;2023-08-07T02:20:08;13.30;99.90
37310;DHT22;23195;47.744;7.358;2023-08-07T02:26:35;13.20;99.90
37310;DHT22;23195;47.744;7.358;2023-08-07T02:29:19;13.20;99.90
37310;DHT22;23195;47.744;7.358;2023-08-07T02:32:03;13.30;99.90
37310;DHT22;23195;47.744;7.358;2023-08-07T02:34:32;13.30;99.90
37310;DHT22;23195;47.744;7.358;2023-08-07T02:37:34;13.30;99.90
37310;DHT22;23195;47.744;7.358;2023-08-07T02:46:29;13.30;99.90
37310;DHT22;23195;47.744;7.358;2023-08-07T02:49:17;13.30;99.90
37310;DHT22;23195;47.744;7.358;2023-08-07T02:54:56;13.30;99.90
37310;DHT22;23195;47.744;7.358;2023-08-07T02:57:24;13.30;99.90
37310;DHT22;23195;47.744;7.358;2023-08-07T03:00:00;13.20;99.90
37310;DHT22;23195;47.744;7.358;2023-08-07T03:02:47;13.20;99.90
37310;DHT22;23195;47.744;7.358;2023-08-07T03:05:49;13.20;99.90
37310;DHT22;23195;47.744;7.358;2023-08-07T03:08:30;13.10;99.90
37310;DHT22;23195;47.744;7.358;2023-08-07T03:11:41;13.20;99.90
37310;DHT22;23195;47.744;7.358;2023-08-07T03:14:11;13.20;99.90
37310;DHT22;23195;47.744;7.358;2023-08-07T03:17:07;13.20;99.90
37310;DHT22;23195;47.744;7.358;2023-08-07T03:19:54;13.20;99.90
37310;DHT22;23195;47.744;7.358;2023-08-07T03:22:37;13.20;99.90
37310;DHT22;23195;47.744;7.358;2023-08-07T03:25:16;13.20;99.90
37310;DHT22;23195;47.744;7.358;2023-08-07T03:30:58;13.10;99.90
37310;DHT22;23195;47.744;7.358;2023-08-07T03:34:01;11.60;99.90
37310;DHT22;23195;47.744;7.358;2023-08-07T03:36:50;13.20;99.90
37310;DHT22;23195;47.744;7.358;2023-08-07T03:39:30;13.10;99.90
37310;DHT22;23195;47.744;7.358;2023-08-07T03:42:17;13.10;99.90
37310;DHT22;23195;47.744;7.358;2023-08-07T03:44:54;13.10;99.90
37310;DHT22;23195;47.744;7.358;2023-08-07T03:47:38;13.10;99.90
37310;DHT22;23195;47.744;7.358;2023-08-07T03:50:25;13.10;99.90
37310;DHT22;23195;47.744;7.358;2023-08-07T03:53:04;13.20;99.90
37310;DHT22;23195;47.744;7.358;2023-08-07T03:55:34;13.10;99.90
37310;DHT22;23195;47.744;7.358;2023-08-07T03:58:13;13.10;99.90
37310;DHT22;23195;47.744;7.358;2023-08-07T04:00:44;13.10;99.90
37310;DHT22;23195;47.744;7.358;2023-08-07T04:03:42;13.10;99.90
37310;DHT22;23195;47.744;7.358;2023-08-07T04:06:20;13.10;99.90
37310;DHT22;23195;47.744;7.358;2023-08-07T04:15:23;13.10;99.90
37310;DHT22;23195;47.744;7.358;2023-08-07T04:18:16;13.10;99.90
37310;DHT22;23195;47.744;7.358;2023-08-07T04:20:58;13.10;99.90
37310;DHT22;23195;47.744;7.358;2023-08-07T04:23:58;13.10;99.90
37310;DHT22;23195;47.744;7.358;2023-08-07T04:26:45;13.10;99.90
37310;DHT22;23195;47.744;7.358;2023-08-07T04:29:35;13.10;99.90
37310;DHT22;23195;47.744;7.358;2023-08-07T04:32:13;13.10;99.90
37310;DHT22;23195;47.744;7.358;2023-08-07T04:35:25;13.00;99.90
37310;DHT22;23195;47.744;7.358;2023-08-07T04:38:19;13.00;99.90
37310;DHT22;23195;47.744;7.358;2023-08-07T04:40:58;13.00;99.90
37310;DHT22;23195;47.744;7.358;2023-08-07T04:43:48;13.00;99.90
37310;DHT22;23195;47.744;7.358;2023-08-07T04:46:24;13.00;99.90
37310;DHT22;23195;47.744;7.358;2023-08-07T04:48:56;13.00;99.90
37310;DHT22;23195;47.744;7.358;2023-08-07T04:51:59;13.10;99.90
37310;DHT22;23195;47.744;7.358;2023-08-07T04:57:41;13.10;99.90
37310;DHT22;23195;47.744;7.358;2023-08-07T05:00:56;13.40;99.90
37310;DHT22;23195;47.744;7.358;2023-08-07T05:03:29;13.10;99.90
37310;DHT22;23195;47.744;7.358;2023-08-07T05:06:18;13.10;99.90
37310;DHT22;23195;47.744;7.358;2023-08-07T05:09:04;13.20;99.90
37310;DHT22;23195;47.744;7.358;2023-08-07T05:17:58;13.20;99.90
37310;DHT22;23195;47.744;7.358;2023-08-07T05:20:57;13.20;99.90
37310;DHT22;23195;47.744;7.358;2023-08-07T05:23:45;14.10;99.90
37310;DHT22;23195;47.744;7.358;2023-08-07T05:26:21;13.30;99.90
37310;DHT22;23195;47.744;7.358;2023-08-07T05:28:51;13.30;99.90
37310;DHT22;23195;47.744;7.358;2023-08-07T05:31:34;13.40;99.90
37310;DHT22;23195;47.744;7.358;2023-08-07T05:34:48;13.50;99.90
37310;DHT22;23195;47.744;7.358;2023-08-07T05:37:24;13.60;99.90
37310;DHT22;23195;47.744;7.358;2023-08-07T05:40:02;13.60;99.90
37310;DHT22;23195;47.744;7.358;2023-08-07T05:42:28;13.40;99.90
37310;DHT22;23195;47.744;7.358;2023-08-07T05:44:54;13.70;99.90
37310;DHT22;23195;47.744;7.358;2023-08-07T05:47:20;13.70;99.90
37310;DHT22;23195;47.744;7.358;2023-08-07T05:49:45;13.70;99.90
37310;DHT22;23195;47.744;7.358;2023-08-07T05:52:11;13.70;99.90
37310;DHT22;23195;47.744;7.358;2023-08-07T05:54:37;13.70;99.90
37310;DHT22;23195;47.744;7.358;2023-08-07T05:57:03;13.70;99.90
37310;DHT22;23195;47.744;7.358;2023-08-07T05:59:29;13.70;99.90
37310;DHT22;23195;47.744;7.358;2023-08-07T06:01:55;13.60;99.90
37310;DHT22;23195;47.744;7.358;2023-08-07T06:04:21;13.60;99.90
37310;DHT22;23195;47.744;7.358;2023-08-07T06:06:47;13.70;99.90
37310;DHT22;23195;47.744;7.358;2023-08-07T06:09:13;13.70;99.90
37310;DHT22;23195;47.744;7.358;2023-08-07T06:11:47;13.70;99.90
37310;DHT22;23195;47.744;7.358;2023-08-07T06:14:13;13.70;99.90
37310;DHT22;23195;47.744;7.358;2023-08-07T06:16:39;13.80;99.90
37310;DHT22;23195;47.744;7.358;2023-08-07T06:19:04;13.70;99.90
37310;DHT22;23195;47.744;7.358;2023-08-07T06:21:30;13.80;99.90
37310;DHT22;23195;47.744;7.358;2023-08-07T06:24:02;13.90;99.90
37310;DHT22;23195;47.744;7.358;2023-08-07T06:26:30;13.80;99.90
37310;DHT22;23195;47.744;7.358;2023-08-07T06:28:56;13.90;99.90
37310;DHT22;23195;47.744;7.358;2023-08-07T06:31:22;14.00;99.90
37310;DHT22;23195;47.744;7.358;2023-08-07T06:33:49;13.90;99.90
37310;DHT22;23195;47.744;7.358;2023-08-07T06:36:15;14.10;99.90
37310;DHT22;23195;47.744;7.358;2023-08-07T06:38:41;14.20;99.90
37310;DHT22;23195;47.744;7.358;2023-08-07T06:41:06;14.30;99.90
37310;DHT22;23195;47.744;7.358;2023-08-07T06:43:32;14.40;99.90
37310;DHT22;23195;47.744;7.358;2023-08-07T06:45:59;14.50;99.90
37310;DHT22;23195;47.744;7.358;2023-08-07T06:48:24;14.60;99.90
37310;DHT22;23195;47.744;7.358;2023-08-07T06:50:50;14.70;99.90
37310;DHT22;23195;47.744;7.358;2023-08-07T06:53:17;14.70;99.90
37310;DHT22;23195;47.744;7.358;2023-08-07T06:55:43;15.00;99.90
37310;DHT22;23195;47.744;7.358;2023-08-07T06:58:09;15.00;99.90
37310;DHT22;23195;47.744;7.358;2023-08-07T07:00:38;15.10;99.90
37310;DHT22;23195;47.744;7.358;2023-08-07T07:03:04;15.20;99.90
37310;DHT22;23195;47.744;7.358;2023-08-07T07:05:40;15.40;99.90
37310;DHT22;23195;47.744;7.358;2023-08-07T07:08:08;15.50;99.90
37310;DHT22;23195;47.744;7.358;2023-08-07T07:10:34;15.70;99.90
37310;DHT22;23195;47.744;7.358;2023-08-07T07:13:05;15.60;99.90
37310;DHT22;23195;47.744;7.358;2023-08-07T07:15:33;15.50;99.90
37310;DHT22;23195;47.744;7.358;2023-08-07T07:18:02;15.50;99.90
37310;DHT22;23195;47.744;7.358;2023-08-07T07:20:28;15.60;99.90
37310;DHT22;23195;47.744;7.358;2023-08-07T07:22:54;15.50;99.90
37310;DHT22;23195;47.744;7.358;2023-08-07T07:25:23;15.40;99.90
37310;DHT22;23195;47.744;7.358;2023-08-07T07:27:48;15.40;99.90
37310;DHT22;23195;47.744;7.358;2023-08-07T07:30:14;15.50;99.90
37310;DHT22;23195;47.744;7.358;2023-08-07T07:32:40;15.60;99.90
37310;DHT22;23195;47.744;7.358;2023-08-07T07:35:09;15.70;99.90
37310;DHT22;23195;47.744;7.358;2023-08-07T07:37:34;15.90;99.90
37310;DHT22;23195;47.744;7.358;2023-08-07T07:40:00;16.00;99.90
37310;DHT22;23195;47.744;7.358;2023-08-07T07:42:28;17.20;99.90
37310;DHT22;23195;47.744;7.358;2023-08-07T07:44:54;18.70;99.90
37310;DHT22;23195;47.744;7.358;2023-08-07T07:47:20;19.40;99.90
37310;DHT22;23195;47.744;7.358;2023-08-07T07:49:46;19.30;99.90
37310;DHT22;23195;47.744;7.358;2023-08-07T07:52:16;19.10;99.90
37310;DHT22;23195;47.744;7.358;2023-08-07T07:54:42;18.70;99.90
37310;DHT22;23195;47.744;7.358;2023-08-07T07:57:08;18.20;99.90
37310;DHT22;23195;47.744;7.358;2023-08-07T07:59:34;17.80;99.90
37310;DHT22;23195;47.744;7.358;2023-08-07T08:01:59;17.60;99.90
37310;DHT22;23195;47.744;7.358;2023-08-07T08:04:25;17.60;99.90
37310;DHT22;23195;47.744;7.358;2023-08-07T08:06:51;17.80;99.90
37310;DHT22;23195;47.744;7.358;2023-08-07T08:09:17;17.90;99.90
37310;DHT22;23195;47.744;7.358;2023-08-07T08:11:45;17.70;99.90
37310;DHT22;23195;47.744;7.358;2023-08-07T08:14:11;17.70;99.90
37310;DHT22;23195;47.744;7.358;2023-08-07T08:16:37;17.70;99.90
37310;DHT22;23195;47.744;7.358;2023-08-07T08:19:03;17.70;99.90
37310;DHT22;23195;47.744;7.358;2023-08-07T08:21:31;17.90;99.90
37310;DHT22;23195;47.744;7.358;2023-08-07T08:23:57;18.10;99.90
37310;DHT22;23195;47.744;7.358;2023-08-07T08:26:23;18.00;99.90
37310;DHT22;23195;47.744;7.358;2023-08-07T08:28:49;18.10;99.90
37310;DHT22;23195;47.744;7.358;2023-08-07T08:31:18;18.00;99.90
37310;DHT22;23195;47.744;7.358;2023-08-07T08:33:49;17.90;99.90
37310;DHT22;23195;47.744;7.358;2023-08-07T08:36:14;17.50;99.90
37310;DHT22;23195;47.744;7.358;2023-08-07T08:38:40;17.90;99.90
37310;DHT22;23195;47.744;7.358;2023-08-07T08:41:07;17.90;99.90
37310;DHT22;23195;47.744;7.358;2023-08-07T08:43:35;18.10;99.90
37310;DHT22;23195;47.744;7.358;2023-08-07T08:46:04;18.30;99.90
37310;DHT22;23195;47.744;7.358;2023-08-07T08:48:35;18.70;99.90
37310;DHT22;23195;47.744;7.358;2023-08-07T08:51:02;19.20;99.90
37310;DHT22;23195;47.744;7.358;2023-08-07T08:53:30;19.50;99.90
37310;DHT22;23195;47.744;7.358;2023-08-07T08:55:56;19.50;99.90
37310;DHT22;23195;47.744;7.358;2023-08-07T08:58:23;19.50;99.90
37310;DHT22;23195;47.744;7.358;2023-08-07T09:00:49;19.20;99.90
37310;DHT22;23195;47.744;7.358;2023-08-07T09:03:18;18.90;99.90
37310;DHT22;23195;47.744;7.358;2023-08-07T09:05:44;18.80;99.90
37310;DHT22;23195;47.744;7.358;2023-08-07T09:08:11;18.80;99.90
37310;DHT22;23195;47.744;7.358;2023-08-07T09:10:38;18.80;99.90
37310;DHT22;23195;47.744;7.358;2023-08-07T09:13:09;18.80;99.90
37310;DHT22;23195;47.744;7.358;2023-08-07T09:15:38;18.80;99.90
37310;DHT22;23195;47.744;7.358;2023-08-07T09:18:10;17.90;99.90
37310;DHT22;23195;47.744;7.358;2023-08-07T09:20:37;19.00;99.90
37310;DHT22;23195;47.744;7.358;2023-08-07T09:23:06;19.30;99.90
37310;DHT22;23195;47.744;7.358;2023-08-07T09:25:33;19.40;99.90
37310;DHT22;23195;47.744;7.358;2023-08-07T09:28:05;19.60;99.90
37310;DHT22;23195;47.744;7.358;2023-08-07T09:30:34;19.40;99.90
37310;DHT22;23195;47.744;7.358;2023-08-07T09:33:00;19.20;99.90
37310;DHT22;23195;47.744;7.358;2023-08-07T09:35:27;18.80;99.90
37310;DHT22;23195;47.744;7.358;2023-08-07T09:37:53;18.80;99.90
37310;DHT22;23195;47.744;7.358;2023-08-07T09:40:19;18.60;99.90
37310;DHT22;23195;47.744;7.358;2023-08-07T09:42:45;18.80;99.90
37310;DHT22;23195;47.744;7.358;2023-08-07T09:45:27;18.80;99.90
37310;DHT22;23195;47.744;7.358;2023-08-07T09:48:05;18.90;99.90
37310;DHT22;23195;47.744;7.358;2023-08-07T09:50:33;19.00;99.90
37310;DHT22;23195;47.744;7.358;2023-08-07T09:52:59;18.90;99.90
37310;DHT22;23195;47.744;7.358;2023-08-07T09:55:26;18.60;99.90
37310;DHT22;23195;47.744;7.358;2023-08-07T09:57:53;18.60;99.90
37310;DHT22;23195;47.744;7.358;2023-08-07T10:00:19;18.80;99.90
37310;DHT22;23195;47.744;7.358;2023-08-07T10:02:51;19.30;99.90
37310;DHT22;23195;47.744;7.358;2023-08-07T10:05:19;19.70;99.90
37310;DHT22;23195;47.744;7.358;2023-08-07T10:07:46;20.20;99.90
37310;DHT22;23195;47.744;7.358;2023-08-07T10:10:12;20.40;99.90
37310;DHT22;23195;47.744;7.358;2023-08-07T10:12:38;20.70;99.90
37310;DHT22;23195;47.744;7.358;2023-08-07T10:15:16;20.70;99.90
37310;DHT22;23195;47.744;7.358;2023-08-07T10:17:43;20.60;99.90
37310;DHT22;23195;47.744;7.358;2023-08-07T10:20:30;20.50;99.90
37310;DHT22;23195;47.744;7.358;2023-08-07T10:23:12;20.30;99.90
37310;DHT22;23195;47.744;7.358;2023-08-07T10:25:43;19.90;99.90
37310;DHT22;23195;47.744;7.358;2023-08-07T10:28:14;19.80;99.90
37310;DHT22;23195;47.744;7.358;2023-08-07T10:30:42;19.80;99.90
37310;DHT22;23195;47.744;7.358;2023-08-07T10:33:10;19.80;99.90
37310;DHT22;23195;47.744;7.358;2023-08-07T10:35:36;19.80;99.90
37310;DHT22;23195;47.744;7.358;2023-08-07T10:38:09;19.90;99.90
37310;DHT22;23195;47.744;7.358;2023-08-07T10:41:01;19.70;99.90
37310;DHT22;23195;47.744;7.358;2023-08-07T10:43:27;19.60;99.90
37310;DHT22;23195;47.744;7.358;2023-08-07T10:46:00;19.50;99.90
37310;DHT22;23195;47.744;7.358;2023-08-07T10:48:28;19.40;99.90
37310;DHT22;23195;47.744;7.358;2023-08-07T10:56:02;20.30;99.90
37310;DHT22;23195;47.744;7.358;2023-08-07T10:58:33;20.50;99.90
37310;DHT22;23195;47.744;7.358;2023-08-07T11:01:20;20.50;99.90
37310;DHT22;23195;47.744;7.358;2023-08-07T11:03:57;20.70;99.90
37310;DHT22;23195;47.744;7.358;2023-08-07T11:06:49;20.60;99.90
37310;DHT22;23195;47.744;7.358;2023-08-07T11:09:18;20.60;99.90
37310;DHT22;23195;47.744;7.358;2023-08-07T11:11:48;20.70;99.90
37310;DHT22;23195;47.744;7.358;2023-08-07T11:14:18;21.20;99.90
37310;DHT22;23195;47.744;7.358;2023-08-07T11:16:51;20.90;99.90
37310;DHT22;23195;47.744;7.358;2023-08-07T11:19:18;20.60;99.90
37310;DHT22;23195;47.744;7.358;2023-08-07T11:21:57;20.70;99.90
37310;DHT22;23195;47.744;7.358;2023-08-07T11:24:23;20.80;99.90
37310;DHT22;23195;47.744;7.358;2023-08-07T11:26:48;20.80;99.90
37310;DHT22;23195;47.744;7.358;2023-08-07T11:29:18;20.80;99.90
37310;DHT22;23195;47.744;7.358;2023-08-07T11:31:45;20.30;99.90
37310;DHT22;23195;47.744;7.358;2023-08-07T11:34:11;20.00;99.90
37310;DHT22;23195;47.744;7.358;2023-08-07T11:36:41;19.80;99.90
37310;DHT22;23195;47.744;7.358;2023-08-07T11:39:08;19.80;99.90
37310;DHT22;23195;47.744;7.358;2023-08-07T11:41:34;20.10;99.90
37310;DHT22;23195;47.744;7.358;2023-08-07T11:43:59;20.10;99.90
37310;DHT22;23195;47.744;7.358;2023-08-07T11:46:26;20.20;99.90
37310;DHT22;23195;47.744;7.358;2023-08-07T11:48:52;20.10;99.90
37310;DHT22;23195;47.744;7.358;2023-08-07T11:51:20;20.80;99.90
37310;DHT22;23195;47.744;7.358;2023-08-07T11:53:46;21.00;99.90
37310;DHT22;23195;47.744;7.358;2023-08-07T12:03:30;20.60;99.90
37310;DHT22;23195;47.744;7.358;2023-08-07T12:06:14;20.50;99.90
37310;DHT22;23195;47.744;7.358;2023-08-07T12:08:59;20.20;99.90
37310;DHT22;23195;47.744;7.358;2023-08-07T12:11:56;20.10;99.90
37310;DHT22;23195;47.744;7.358;2023-08-07T12:14:47;19.90;99.90
37310;DHT22;23195;47.744;7.358;2023-08-07T12:41:00;20.80;99.90
37310;DHT22;23195;47.744;7.358;2023-08-07T13:12:48;20.60;99.90
37310;DHT22;23195;47.744;7.358;2023-08-07T13:23:00;18.90;99.90
37310;DHT22;23195;47.744;7.358;2023-08-07T13:25:27;17.90;99.90
37310;DHT22;23195;47.744;7.358;2023-08-07T13:27:58;17.10;99.90
37310;DHT22;23195;47.744;7.358;2023-08-07T13:44:20;17.70;99.90
37310;DHT22;23195;47.744;7.358;2023-08-07T13:47:36;17.90;99.90
37310;DHT22;23195;47.744;7.358;2023-08-07T13:57:45;18.80;99.90
37310;DHT22;23195;47.744;7.358;2023-08-07T14:26:06;17.50;99.90
37310;DHT22;23195;47.744;7.358;2023-08-07T14:29:19;18.70;99.90
37310;DHT22;23195;47.744;7.358;2023-08-07T14:32:19;19.00;99.90
37310;DHT22;23195;47.744;7.358;2023-08-07T14:38:42;19.00;99.90
37310;DHT22;23195;47.744;7.358;2023-08-07T14:41:39;19.40;99.90
37310;DHT22;23195;47.744;7.358;2023-08-07T15:34:32;19.60;99.90
37310;DHT22;23195;47.744;7.358;2023-08-07T15:40:51;19.90;99.90
37310;DHT22;23195;47.744;7.358;2023-08-07T15:44:03;19.90;99.90
37310;DHT22;23195;47.744;7.358;2023-08-07T15:47:10;19.80;99.90
37310;DHT22;23195;47.744;7.358;2023-08-07T15:53:29;19.80;99.90
37310;DHT22;23195;47.744;7.358;2023-08-07T15:59:59;19.80;99.90
37310;DHT22;23195;47.744;7.358;2023-08-07T16:06:39;20.00;99.90
37310;DHT22;23195;47.744;7.358;2023-08-07T18:00:53;19.00;99.90
37310;DHT22;23195;47.744;7.358;2023-08-07T18:04:14;19.00;99.90
37310;DHT22;23195;47.744;7.358;2023-08-07T18:48:44;17.60;99.90
37310;DHT22;23195;47.744;7.358;2023-08-07T18:51:37;17.40;99.90
37310;DHT22;23195;47.744;7.358;2023-08-07T18:54:18;17.10;99.90
37310;DHT22;23195;47.744;7.358;2023-08-07T18:56:49;17.00;99.90
37310;DHT22;23195;47.744;7.358;2023-08-07T19:00:02;16.80;99.90
37310;DHT22;23195;47.744;7.358;2023-08-07T19:02:31;16.60;99.90
37310;DHT22;23195;47.744;7.358;2023-08-07T19:08:07;16.40;99.90
37310;DHT22;23195;47.744;7.358;2023-08-07T19:11:06;16.30;99.90
37310;DHT22;23195;47.744;7.358;2023-08-07T19:13:35;16.10;99.90
37310;DHT22;23195;47.744;7.358;2023-08-07T19:19:22;15.90;99.90
37310;DHT22;23195;47.744;7.358;2023-08-07T19:22:20;14.50;99.90
37310;DHT22;23195;47.744;7.358;2023-08-07T19:25:06;15.60;99.90
37310;DHT22;23195;47.744;7.358;2023-08-07T19:27:59;15.30;99.90
37310;DHT22;23195;47.744;7.358;2023-08-07T19:30:41;15.60;99.90
37310;DHT22;23195;47.744;7.358;2023-08-07T19:33:20;15.10;99.90
37310;DHT22;23195;47.744;7.358;2023-08-07T19:36:18;15.50;99.90
37310;DHT22;23195;47.744;7.358;2023-08-07T19:39:04;15.50;99.90
37310;DHT22;23195;47.744;7.358;2023-08-07T19:41:35;16.20;99.90
37310;DHT22;23195;47.744;7.358;2023-08-07T19:44:16;15.40;99.90
37310;DHT22;23195;47.744;7.358;2023-08-07T19:56:37;15.20;99.90
37310;DHT22;23195;47.744;7.358;2023-08-07T20:09:29;15.00;99.90
37310;DHT22;23195;47.744;7.358;2023-08-07T20:33:25;14.70;99.90
37310;DHT22;23195;47.744;7.358;2023-08-07T20:47:27;14.50;99.90
37310;DHT22;23195;47.744;7.358;2023-08-07T21:32:06;13.70;99.90
37310;DHT22;23195;47.744;7.358;2023-08-07T21:52:13;13.30;99.90
37310;DHT22;23195;47.744;7.358;2023-08-07T21:55:00;13.30;99.90
37310;DHT22;23195;47.744;7.358;2023-08-07T21:57:43;13.20;99.90
37310;DHT22;23195;47.744;7.358;2023-08-07T22:00:50;13.10;99.90
37310;DHT22;23195;47.744;7.358;2023-08-07T22:03:42;13.20;99.90
37310;DHT22;23195;47.744;7.358;2023-08-07T22:07:00;13.10;99.90
37310;DHT22;23195;47.744;7.358;2023-08-07T22:09:31;12.90;99.90
37310;DHT22;23195;47.744;7.358;2023-08-07T22:12:10;13.10;99.90
37310;DHT22;23195;47.744;7.358;2023-08-07T22:15:03;13.10;99.90
37310;DHT22;23195;47.744;7.358;2023-08-07T22:17:48;13.10;99.90
37310;DHT22;23195;47.744;7.358;2023-08-07T22:23:52;13.10;99.90
37310;DHT22;23195;47.744;7.358;2023-08-07T22:29:57;13.20;99.90
37310;DHT22;23195;47.744;7.358;2023-08-07T22:32:49;13.10;99.90
37310;DHT22;23195;47.744;7.358;2023-08-07T22:35:19;13.10;99.90
37310;DHT22;23195;47.744;7.358;2023-08-07T22:38:33;13.10;99.90
37310;DHT22;23195;47.744;7.358;2023-08-07T22:41:28;13.10;99.90
37310;DHT22;23195;47.744;7.358;2023-08-07T22:44:21;13.00;99.90
37310;DHT22;23195;47.744;7.358;2023-08-07T22:47:19;13.10;99.90
37310;DHT22;23195;47.744;7.358;2023-08-07T22:53:07;13.10;99.90
37310;DHT22;23195;47.744;7.358;2023-08-07T22:55:46;13.10;99.90
37310;DHT22;23195;47.744;7.358;2023-08-07T22:58:28;13.00;99.90
37310;DHT22;23195;47.744;7.358;2023-08-07T23:00:59;13.10;99.90
37310;DHT22;23195;47.744;7.358;2023-08-07T23:03:35;13.00;99.90
37310;DHT22;23195;47.744;7.358;2023-08-07T23:06:39;12.90;99.90
37310;DHT22;23195;47.744;7.358;2023-08-07T23:09:26;12.70;99.90
37310;DHT22;23195;47.744;7.358;2023-08-07T23:12:05;12.70;99.90
37310;DHT22;23195;47.744;7.358;2023-08-07T23:14:57;12.80;99.90
37310;DHT22;23195;47.744;7.358;2023-08-07T23:18:04;12.40;99.90
37310;DHT22;23195;47.744;7.358;2023-08-07T23:21:06;12.80;99.90
37310;DHT22;23195;47.744;7.358;2023-08-07T23:24:03;12.80;99.90
37310;DHT22;23195;47.744;7.358;2023-08-07T23:27:07;12.70;99.90
37310;DHT22;23195;47.744;7.358;2023-08-07T23:30:08;12.80;99.90
37310;DHT22;23195;47.744;7.358;2023-08-07T23:32:35;12.70;99.90
37310;DHT22;23195;47.744;7.358;2023-08-07T23:35:15;12.80;99.90
37310;DHT22;23195;47.744;7.358;2023-08-07T23:37:49;13.20;99.90
37310;DHT22;23195;47.744;7.358;2023-08-07T23:43:11;12.70;99.90
37310;DHT22;23195;47.744;7.358;2023-08-07T23:45:52;12.70;99.90
37310;DHT22;23195;47.744;7.358;2023-08-07T23:48:31;12.30;99.90
37310;DHT22;23195;47.744;7.358;2023-08-07T23:51:10;12.80;99.90
37310;DHT22;23195;47.744;7.358;2023-08-07T23:53:50;12.80;99.90
37310;DHT22;23195;47.744;7.358;2023-08-07T23:59:23;12.80;99.90
